Terminal Aerodrome Forecast
Issued by NWS

Home | Current Version | Previous Version | Graphics & Text | Print | Product List | Glossary On
Versions: 1 2 3 4 5 6 7 8 9 10 11 12
000
FTUS42 KMHX 201732
TAFISO
TAF
KISO 201732Z 2018/2118 VRB05KT P6SM SCT040
     FM202100 03005KT P6SM VCTS SCT040CB
     FM210000 VRB04KT P6SM SCT040 SCT250
     FM210900 VRB03KT 3SM BR FEW006
     FM211400 VRB03KT P6SM SCT050
      AMD LTD TO CLD VIS AND WIND=

USA.gov is the U.S. government's official web portal to all federal, state and local government web resources and services.